sensor_id;sensor_type;location;lat;lon;timestamp;pressure;altitude;pressure_sealevel;temperature;humidity
20256;BME280;10286;59.364;18.016;2023-11-21T00:00:01;101379.19;;;0.95;100.00
20256;BME280;10286;59.364;18.016;2023-11-21T00:02:30;101380.09;;;0.94;100.00
20256;BME280;10286;59.364;18.016;2023-11-21T00:04:57;101378.41;;;0.93;100.00
20256;BME280;10286;59.364;18.016;2023-11-21T00:07:26;101383.41;;;0.99;100.00
20256;BME280;10286;59.364;18.016;2023-11-21T00:26:43;101395.44;;;1.02;100.00
20256;BME280;10286;59.364;18.016;2023-11-21T00:29:10;101392.94;;;0.99;100.00
20256;BME280;10286;59.364;18.016;2023-11-21T00:31:38;101400.53;;;1.05;100.00
20256;BME280;10286;59.364;18.016;2023-11-21T00:34:05;101404.09;;;1.02;100.00
20256;BME280;10286;59.364;18.016;2023-11-21T00:36:33;101388.81;;;0.93;100.00
20256;BME280;10286;59.364;18.016;2023-11-21T00:39:00;101416.94;;;1.07;100.00
20256;BME280;10286;59.364;18.016;2023-11-21T00:41:28;101404.81;;;1.06;100.00
20256;BME280;10286;59.364;18.016;2023-11-21T00:43:57;101413.53;;;1.05;100.00
20256;BME280;10286;59.364;18.016;2023-11-21T00:46:25;101403.47;;;0.96;100.00
20256;BME280;10286;59.364;18.016;2023-11-21T00:48:54;101411.94;;;1.01;100.00
20256;BME280;10286;59.364;18.016;2023-11-21T00:51:22;101409.44;;;0.98;100.00
20256;BME280;10286;59.364;18.016;2023-11-21T00:53:50;101405.72;;;1.05;100.00
20256;BME280;10286;59.364;18.016;2023-11-21T00:56:18;101403.13;;;1.05;100.00
20256;BME280;10286;59.364;18.016;2023-11-21T00:58:45;101410.13;;;1.03;100.00
20256;BME280;10286;59.364;18.016;2023-11-21T01:01:17;101411.91;;;1.02;100.00
20256;BME280;10286;59.364;18.016;2023-11-21T01:03:46;101412.63;;;1.06;100.00
20256;BME280;10286;59.364;18.016;2023-11-21T01:06:13;101418.78;;;1.03;100.00
20256;BME280;10286;59.364;18.016;2023-11-21T01:08:41;101414.50;;;1.02;100.00
20256;BME280;10286;59.364;18.016;2023-11-21T01:11:08;101408.31;;;1.05;100.00
20256;BME280;10286;59.364;18.016;2023-11-21T01:13:37;101388.91;;;0.90;100.00
20256;BME280;10286;59.364;18.016;2023-11-21T01:16:07;101430.72;;;1.09;100.00
20256;BME280;10286;59.364;18.016;2023-11-21T01:18:36;101430.63;;;1.12;100.00
20256;BME280;10286;59.364;18.016;2023-11-21T01:21:04;101400.06;;;0.94;100.00
20256;BME280;10286;59.364;18.016;2023-11-21T01:23:31;101426.25;;;1.12;100.00
20256;BME280;10286;59.364;18.016;2023-11-21T01:25:58;101407.72;;;0.98;100.00
20256;BME280;10286;59.364;18.016;2023-11-21T01:28:28;101435.81;;;1.12;100.00
20256;BME280;10286;59.364;18.016;2023-11-21T01:30:55;101434.00;;;1.14;100.00
20256;BME280;10286;59.364;18.016;2023-11-21T01:33:22;101441.81;;;1.14;100.00
20256;BME280;10286;59.364;18.016;2023-11-21T01:35:52;101411.22;;;0.97;100.00
20256;BME280;10286;59.364;18.016;2023-11-21T01:38:20;101449.84;;;1.08;100.00
20256;BME280;10286;59.364;18.016;2023-11-21T01:40:48;101438.47;;;1.10;100.00
20256;BME280;10286;59.364;18.016;2023-11-21T01:43:15;101458.34;;;1.11;100.00
20256;BME280;10286;59.364;18.016;2023-11-21T01:45:43;101447.91;;;1.13;100.00
20256;BME280;10286;59.364;18.016;2023-11-21T01:48:11;101454.84;;;1.12;100.00
20256;BME280;10286;59.364;18.016;2023-11-21T01:50:39;101429.13;;;1.05;100.00
20256;BME280;10286;59.364;18.016;2023-11-21T01:53:10;101458.25;;;1.14;100.00
20256;BME280;10286;59.364;18.016;2023-11-21T01:55:40;101462.66;;;1.12;100.00
20256;BME280;10286;59.364;18.016;2023-11-21T01:58:10;101457.44;;;1.12;100.00
20256;BME280;10286;59.364;18.016;2023-11-21T02:00:38;101466.03;;;1.14;100.00
20256;BME280;10286;59.364;18.016;2023-11-21T02:03:05;101464.34;;;1.13;100.00
20256;BME280;10286;59.364;18.016;2023-11-21T02:05:33;101446.41;;;1.06;100.00
20256;BME280;10286;59.364;18.016;2023-11-21T02:08:01;101468.75;;;1.11;100.00
20256;BME280;10286;59.364;18.016;2023-11-21T02:10:31;101449.00;;;1.06;100.00
20256;BME280;10286;59.364;18.016;2023-11-21T02:12:58;101477.06;;;1.22;100.00
20256;BME280;10286;59.364;18.016;2023-11-21T02:15:28;101464.19;;;1.18;100.00
20256;BME280;10286;59.364;18.016;2023-11-21T02:17:56;101464.41;;;1.12;100.00
20256;BME280;10286;59.364;18.016;2023-11-21T02:20:24;101456.78;;;1.07;100.00
20256;BME280;10286;59.364;18.016;2023-11-21T02:22:54;101478.06;;;1.18;100.00
20256;BME280;10286;59.364;18.016;2023-11-21T02:25:23;101466.81;;;1.18;100.00
20256;BME280;10286;59.364;18.016;2023-11-21T02:27:51;101486.66;;;1.20;100.00
20256;BME280;10286;59.364;18.016;2023-11-21T02:30:20;101445.00;;;0.97;100.00
20256;BME280;10286;59.364;18.016;2023-11-21T02:32:47;101486.00;;;1.14;100.00
20256;BME280;10286;59.364;18.016;2023-11-21T02:35:15;101492.91;;;1.15;100.00
20256;BME280;10286;59.364;18.016;2023-11-21T02:37:42;101493.84;;;1.12;100.00
20256;BME280;10286;59.364;18.016;2023-11-21T02:40:11;101493.75;;;1.15;100.00
20256;BME280;10286;59.364;18.016;2023-11-21T02:42:43;101485.16;;;1.13;100.00
20256;BME280;10286;59.364;18.016;2023-11-21T02:45:10;101452.31;;;0.85;100.00
20256;BME280;10286;59.364;18.016;2023-11-21T02:47:38;101498.25;;;1.10;100.00
20256;BME280;10286;59.364;18.016;2023-11-21T02:50:06;101494.75;;;1.11;100.00
20256;BME280;10286;59.364;18.016;2023-11-21T02:52:34;101494.06;;;1.06;100.00
20256;BME280;10286;59.364;18.016;2023-11-21T02:55:02;101502.56;;;1.11;100.00
20256;BME280;10286;59.364;18.016;2023-11-21T02:57:31;101487.28;;;1.02;100.00
20256;BME280;10286;59.364;18.016;2023-11-21T02:59:58;101508.66;;;1.10;100.00
20256;BME280;10286;59.364;18.016;2023-11-21T03:02:26;101509.31;;;1.17;100.00
20256;BME280;10286;59.364;18.016;2023-11-21T03:04:53;101507.50;;;1.19;100.00
20256;BME280;10286;59.364;18.016;2023-11-21T03:07:20;101508.50;;;1.15;100.00
20256;BME280;10286;59.364;18.016;2023-11-21T03:09:47;101502.38;;;1.17;100.00
20256;BME280;10286;59.364;18.016;2023-11-21T03:12:15;101510.06;;;1.20;100.00
20256;BME280;10286;59.364;18.016;2023-11-21T03:14:43;101519.44;;;1.24;100.00
20256;BME280;10286;59.364;18.016;2023-11-21T03:17:10;101524.69;;;1.23;100.00
20256;BME280;10286;59.364;18.016;2023-11-21T03:19:37;101526.34;;;1.25;100.00
20256;BME280;10286;59.364;18.016;2023-11-21T03:22:04;101530.53;;;1.29;100.00
20256;BME280;10286;59.364;18.016;2023-11-21T03:24:31;101535.75;;;1.29;100.00
20256;BME280;10286;59.364;18.016;2023-11-21T03:26:59;101541.63;;;1.34;100.00
20256;BME280;10286;59.364;18.016;2023-11-21T03:29:27;101547.69;;;1.35;100.00
20256;BME280;10286;59.364;18.016;2023-11-21T03:31:55;101530.00;;;1.20;100.00
20256;BME280;10286;59.364;18.016;2023-11-21T03:34:26;101542.50;;;1.35;100.00
20256;BME280;10286;59.364;18.016;2023-11-21T03:36:54;101544.19;;;1.36;100.00
20256;BME280;10286;59.364;18.016;2023-11-21T03:39:21;101546.78;;;1.36;100.00
20256;BME280;10286;59.364;18.016;2023-11-21T03:41:49;101551.88;;;1.39;100.00
20256;BME280;10286;59.364;18.016;2023-11-21T03:44:17;101550.03;;;1.42;100.00
20256;BME280;10286;59.364;18.016;2023-11-21T03:46:45;101553.31;;;1.47;100.00
20256;BME280;10286;59.364;18.016;2023-11-21T03:49:13;101555.06;;;1.47;100.00
20256;BME280;10286;59.364;18.016;2023-11-21T03:51:40;101556.03;;;1.44;100.00
20256;BME280;10286;59.364;18.016;2023-11-21T03:54:07;101561.91;;;1.49;100.00
20256;BME280;10286;59.364;18.016;2023-11-21T03:56:35;101573.13;;;1.51;100.00
20256;BME280;10286;59.364;18.016;2023-11-21T03:59:02;101572.09;;;1.55;100.00
20256;BME280;10286;59.364;18.016;2023-11-21T04:01:29;101561.97;;;1.48;100.00
20256;BME280;10286;59.364;18.016;2023-11-21T04:03:56;101562.50;;;1.57;100.00
20256;BME280;10286;59.364;18.016;2023-11-21T04:06:25;101580.63;;;1.60;100.00
20256;BME280;10286;59.364;18.016;2023-11-21T04:08:52;101575.31;;;1.63;100.00
20256;BME280;10286;59.364;18.016;2023-11-21T04:11:19;101579.53;;;1.65;100.00
20256;BME280;10286;59.364;18.016;2023-11-21T04:13:47;101583.84;;;1.66;100.00
20256;BME280;10286;59.364;18.016;2023-11-21T04:16:14;101587.53;;;1.61;100.00
20256;BME280;10286;59.364;18.016;2023-11-21T04:18:41;101576.38;;;1.58;100.00
20256;BME280;10286;59.364;18.016;2023-11-21T04:21:11;101574.44;;;1.63;100.00
20256;BME280;10286;59.364;18.016;2023-11-21T04:23:40;101572.81;;;1.60;100.00
20256;BME280;10286;59.364;18.016;2023-11-21T04:26:07;101584.72;;;1.67;100.00
20256;BME280;10286;59.364;18.016;2023-11-21T04:28:34;101583.84;;;1.66;100.00
20256;BME280;10286;59.364;18.016;2023-11-21T04:31:02;101588.31;;;1.63;100.00
20256;BME280;10286;59.364;18.016;2023-11-21T04:33:29;101589.22;;;1.62;100.00
20256;BME280;10286;59.364;18.016;2023-11-21T04:35:57;101593.47;;;1.64;100.00
20256;BME280;10286;59.364;18.016;2023-11-21T04:38:24;101589.22;;;1.62;100.00
20256;BME280;10286;59.364;18.016;2023-11-21T04:40:53;101602.94;;;1.67;100.00
20256;BME280;10286;59.364;18.016;2023-11-21T04:43:20;101603.03;;;1.64;100.00
20256;BME280;10286;59.364;18.016;2023-11-21T04:45:47;101605.53;;;1.67;100.00
20256;BME280;10286;59.364;18.016;2023-11-21T04:48:15;101608.06;;;1.68;100.00
20256;BME280;10286;59.364;18.016;2023-11-21T04:50:43;101614.94;;;1.71;100.00
20256;BME280;10286;59.364;18.016;2023-11-21T04:53:10;101604.50;;;1.71;100.00
20256;BME280;10286;59.364;18.016;2023-11-21T04:55:40;101615.13;;;1.65;100.00
20256;BME280;10286;59.364;18.016;2023-11-21T04:58:09;101624.44;;;1.72;100.00
20256;BME280;10286;59.364;18.016;2023-11-21T05:00:37;101612.31;;;1.71;100.00
20256;BME280;10286;59.364;18.016;2023-11-21T05:03:04;101627.00;;;1.73;100.00
20256;BME280;10286;59.364;18.016;2023-11-21T05:05:32;101633.81;;;1.76;100.00
20256;BME280;10286;59.364;18.016;2023-11-21T05:08:00;101619.06;;;1.76;100.00
20256;BME280;10286;59.364;18.016;2023-11-21T05:10:28;101628.50;;;1.79;100.00
20256;BME280;10286;59.364;18.016;2023-11-21T05:12:56;101630.28;;;1.78;100.00
20256;BME280;10286;59.364;18.016;2023-11-21T05:15:26;101635.59;;;1.75;100.00
20256;BME280;10286;59.364;18.016;2023-11-21T05:17:54;101636.44;;;1.76;100.00
20256;BME280;10286;59.364;18.016;2023-11-21T05:20:25;101642.66;;;1.72;100.00
20256;BME280;10286;59.364;18.016;2023-11-21T05:22:52;101628.09;;;1.66;100.00
20256;BME280;10286;59.364;18.016;2023-11-21T05:25:20;101645.78;;;1.81;100.00
20256;BME280;10286;59.364;18.016;2023-11-21T05:27:47;101633.09;;;1.72;100.00
20256;BME280;10286;59.364;18.016;2023-11-21T05:30:15;101650.66;;;1.90;100.00
20256;BME280;10286;59.364;18.016;2023-11-21T05:32:44;101631.06;;;1.80;100.00
20256;BME280;10286;59.364;18.016;2023-11-21T05:35:12;101652.53;;;1.87;100.00
20256;BME280;10286;59.364;18.016;2023-11-21T05:37:41;101661.16;;;1.89;100.00
20256;BME280;10286;59.364;18.016;2023-11-21T05:40:09;101650.75;;;1.89;100.00
20256;BME280;10286;59.364;18.016;2023-11-21T05:42:36;101658.69;;;1.84;100.00
20256;BME280;10286;59.364;18.016;2023-11-21T05:45:05;101668.97;;;1.89;100.00
20256;BME280;10286;59.364;18.016;2023-11-21T05:47:39;101665.59;;;1.85;100.00
20256;BME280;10286;59.364;18.016;2023-11-21T05:50:10;101661.03;;;1.92;100.00
20256;BME280;10286;59.364;18.016;2023-11-21T05:52:40;101657.97;;;1.81;100.00
20256;BME280;10286;59.364;18.016;2023-11-21T05:55:09;101666.50;;;1.84;100.00
20256;BME280;10286;59.364;18.016;2023-11-21T05:57:39;101680.06;;;1.94;100.00
20256;BME280;10286;59.364;18.016;2023-11-21T06:00:08;101680.75;;;1.99;100.00
20256;BME280;10286;59.364;18.016;2023-11-21T06:02:45;101652.66;;;1.84;100.00
20256;BME280;10286;59.364;18.016;2023-11-21T06:05:15;101675.88;;;1.90;100.00
20256;BME280;10286;59.364;18.016;2023-11-21T06:07:43;101683.47;;;1.96;100.00
20256;BME280;10286;59.364;18.016;2023-11-21T06:10:14;101682.13;;;1.84;100.00
20256;BME280;10286;59.364;18.016;2023-11-21T06:12:43;101688.78;;;1.93;100.00
20256;BME280;10286;59.364;18.016;2023-11-21T06:15:11;101663.31;;;1.76;100.00
20256;BME280;10286;59.364;18.016;2023-11-21T06:17:41;101689.78;;;1.89;100.00
20256;BME280;10286;59.364;18.016;2023-11-21T06:20:11;101700.22;;;1.87;100.00
20256;BME280;10286;59.364;18.016;2023-11-21T06:22:42;101701.78;;;1.93;100.00
20256;BME280;10286;59.364;18.016;2023-11-21T06:25:11;101706.31;;;1.88;100.00
20256;BME280;10286;59.364;18.016;2023-11-21T06:27:39;101722.72;;;1.90;100.00
20256;BME280;10286;59.364;18.016;2023-11-21T06:30:09;101711.31;;;1.94;100.00
20256;BME280;10286;59.364;18.016;2023-11-21T06:32:37;101713.97;;;1.92;100.00
20256;BME280;10286;59.364;18.016;2023-11-21T06:35:06;101723.47;;;1.93;100.00
20256;BME280;10286;59.364;18.016;2023-11-21T06:37:35;101710.66;;;1.87;100.00
20256;BME280;10286;59.364;18.016;2023-11-21T06:40:06;101727.56;;;2.00;100.00
20256;BME280;10286;59.364;18.016;2023-11-21T06:42:37;101723.56;;;1.90;100.00
20256;BME280;10286;59.364;18.016;2023-11-21T06:45:06;101737.34;;;1.94;100.00
20256;BME280;10286;59.364;18.016;2023-11-21T06:47:37;101713.97;;;1.92;100.00
20256;BME280;10286;59.364;18.016;2023-11-21T06:50:08;101731.28;;;1.93;100.00
20256;BME280;10286;59.364;18.016;2023-11-21T06:52:39;101727.03;;;1.91;100.00
20256;BME280;10286;59.364;18.016;2023-11-21T06:55:16;101743.44;;;1.93;100.00
20256;BME280;10286;59.364;18.016;2023-11-21T06:57:46;101740.84;;;1.93;100.00
20256;BME280;10286;59.364;18.016;2023-11-21T07:00:17;101758.84;;;1.99;100.00
20256;BME280;10286;59.364;18.016;2023-11-21T07:02:56;101746.19;;;1.88;100.00
20256;BME280;10286;59.364;18.016;2023-11-21T07:05:27;101720.44;;;1.81;100.00
20256;BME280;10286;59.364;18.016;2023-11-21T07:07:57;101759.56;;;2.04;100.00
20256;BME280;10286;59.364;18.016;2023-11-21T07:10:35;101757.03;;;2.01;100.00
20256;BME280;10286;59.364;18.016;2023-11-21T07:13:13;101759.72;;;1.99;100.00
20256;BME280;10286;59.364;18.016;2023-11-21T07:15:43;101776.00;;;2.06;100.00
20256;BME280;10286;59.364;18.016;2023-11-21T07:18:14;101769.25;;;1.99;100.00
20256;BME280;10286;59.364;18.016;2023-11-21T07:20:43;101784.72;;;2.05;100.00
20256;BME280;10286;59.364;18.016;2023-11-21T07:23:17;101770.41;;;1.90;100.00
20256;BME280;10286;59.364;18.016;2023-11-21T07:25:59;101774.75;;;1.91;100.00
20256;BME280;10286;59.364;18.016;2023-11-21T07:28:29;101779.69;;;1.99;100.00
20256;BME280;10286;59.364;18.016;2023-11-21T07:30:57;101772.94;;;1.93;100.00
20256;BME280;10286;59.364;18.016;2023-11-21T07:33:26;101782.38;;;1.96;100.00
20256;BME280;10286;59.364;18.016;2023-11-21T07:35:56;101787.50;;;1.99;100.00
20256;BME280;10286;59.364;18.016;2023-11-21T07:38:24;101792.09;;;1.91;100.00
20256;BME280;10286;59.364;18.016;2023-11-21T07:40:52;101794.59;;;1.94;100.00
20256;BME280;10286;59.364;18.016;2023-11-21T07:43:20;101791.31;;;1.89;100.00
20256;BME280;10286;59.364;18.016;2023-11-21T07:45:49;101794.59;;;1.94;100.00
20256;BME280;10286;59.364;18.016;2023-11-21T07:48:17;101792.22;;;1.88;100.00
20256;BME280;10286;59.364;18.016;2023-11-21T07:50:45;101791.50;;;1.83;100.00
20256;BME280;10286;59.364;18.016;2023-11-21T07:53:14;101795.50;;;1.93;100.00
20256;BME280;10286;59.364;18.016;2023-11-21T07:55:42;101782.72;;;1.85;100.00
20256;BME280;10286;59.364;18.016;2023-11-21T07:58:14;101791.16;;;1.93;100.00
20256;BME280;10286;59.364;18.016;2023-11-21T08:00:43;101760.44;;;1.77;100.00
20256;BME280;10286;59.364;18.016;2023-11-21T08:03:11;101799.88;;;1.92;100.00
20256;BME280;10286;59.364;18.016;2023-11-21T08:05:38;101765.47;;;1.83;100.00
20256;BME280;10286;59.364;18.016;2023-11-21T08:08:06;101801.50;;;1.95;100.00
20256;BME280;10286;59.364;18.016;2023-11-21T08:10:35;101800.91;;;1.87;100.00
20256;BME280;10286;59.364;18.016;2023-11-21T08:13:03;101814.84;;;1.86;100.00
20256;BME280;10286;59.364;18.016;2023-11-21T08:15:33;101824.28;;;1.88;100.00
20256;BME280;10286;59.364;18.016;2023-11-21T08:18:03;101814.75;;;1.89;100.00
20256;BME280;10286;59.364;18.016;2023-11-21T08:20:33;101818.25;;;1.88;100.00
20256;BME280;10286;59.364;18.016;2023-11-21T08:23:02;101814.78;;;1.87;100.00
20256;BME280;10286;59.364;18.016;2023-11-21T08:25:31;101832.09;;;1.88;100.00
20256;BME280;10286;59.364;18.016;2023-11-21T08:28:01;101836.47;;;1.88;100.00
20256;BME280;10286;59.364;18.016;2023-11-21T08:30:29;101811.34;;;1.87;100.00
20256;BME280;10286;59.364;18.016;2023-11-21T08:32:58;101841.53;;;1.92;100.00
20256;BME280;10286;59.364;18.016;2023-11-21T08:35:26;101806.59;;;1.72;100.00
20256;BME280;10286;59.364;18.016;2023-11-21T08:37:54;101811.00;;;1.70;100.00
20256;BME280;10286;59.364;18.016;2023-11-21T08:40:21;101841.13;;;1.77;100.00
20256;BME280;10286;59.364;18.016;2023-11-21T08:42:49;101843.91;;;1.72;100.00
20256;BME280;10286;59.364;18.016;2023-11-21T08:45:18;101831.22;;;1.62;100.00
20256;BME280;10286;59.364;18.016;2023-11-21T08:47:46;101848.94;;;1.77;100.00
20256;BME280;10286;59.364;18.016;2023-11-21T08:50:15;101854.91;;;1.80;100.00
20256;BME280;10286;59.364;18.016;2023-11-21T08:52:44;101856.91;;;1.72;100.00
20256;BME280;10286;59.364;18.016;2023-11-21T08:55:12;101873.47;;;1.70;100.00
20256;BME280;10286;59.364;18.016;2023-11-21T08:57:39;101882.75;;;1.78;100.00
20256;BME280;10286;59.364;18.016;2023-11-21T09:00:08;101851.97;;;1.63;100.00
20256;BME280;10286;59.364;18.016;2023-11-21T09:02:37;101873.44;;;1.71;100.00
20256;BME280;10286;59.364;18.016;2023-11-21T09:05:06;101882.66;;;1.81;100.00
20256;BME280;10286;59.364;18.016;2023-11-21T09:07:37;101878.38;;;1.79;100.00
20256;BME280;10286;59.364;18.016;2023-11-21T09:10:06;101882.53;;;1.86;100.00
20256;BME280;10286;59.364;18.016;2023-11-21T09:12:35;101883.19;;;1.92;100.00
20256;BME280;10286;59.364;18.016;2023-11-21T09:15:03;101883.94;;;1.96;100.00
20256;BME280;10286;59.364;18.016;2023-11-21T09:17:31;101883.22;;;1.91;100.00
20256;BME280;10286;59.364;18.016;2023-11-21T09:19:59;101883.13;;;1.94;100.00
20256;BME280;10286;59.364;18.016;2023-11-21T09:22:27;101896.72;;;2.03;100.00
20256;BME280;10286;59.364;18.016;2023-11-21T09:24:57;101876.97;;;1.96;100.00
20256;BME280;10286;59.364;18.016;2023-11-21T09:27:24;101883.72;;;2.02;100.00
20256;BME280;10286;59.364;18.016;2023-11-21T09:29:53;101887.97;;;2.06;100.00
20256;BME280;10286;59.364;18.016;2023-11-21T09:32:21;101864.91;;;1.94;100.00
20256;BME280;10286;59.364;18.016;2023-11-21T09:34:48;101886.84;;;2.14;100.00
20256;BME280;10286;59.364;18.016;2023-11-21T09:37:16;101890.28;;;2.15;100.00
20256;BME280;10286;59.364;18.016;2023-11-21T09:39:43;101891.78;;;2.22;100.00
20256;BME280;10286;59.364;18.016;2023-11-21T09:42:13;101891.06;;;2.17;100.00
20256;BME280;10286;59.364;18.016;2023-11-21T09:44:59;101901.28;;;2.23;100.00
20256;BME280;10286;59.364;18.016;2023-11-21T09:47:30;101903.84;;;2.24;100.00
20256;BME280;10286;59.364;18.016;2023-11-21T09:50:00;101891.63;;;2.26;100.00
20256;BME280;10286;59.364;18.016;2023-11-21T09:52:29;101897.97;;;2.18;100.00
20256;BME280;10286;59.364;18.016;2023-11-21T09:54:58;101910.97;;;2.19;100.00
20256;BME280;10286;59.364;18.016;2023-11-21T09:57:28;101906.50;;;2.23;100.00
20256;BME280;10286;59.364;18.016;2023-11-21T09:59:56;101903.56;;;2.33;100.00
20256;BME280;10286;59.364;18.016;2023-11-21T10:02:26;101900.34;;;2.25;100.00
20256;BME280;10286;59.364;18.016;2023-11-21T10:04:54;101865.22;;;2.11;100.00
20256;BME280;10286;59.364;18.016;2023-11-21T10:07:22;101908.69;;;2.36;100.00
20256;BME280;10286;59.364;18.016;2023-11-21T10:09:51;101921.88;;;2.30;100.00
20256;BME280;10286;59.364;18.016;2023-11-21T10:12:20;101919.19;;;2.33;100.00
20256;BME280;10286;59.364;18.016;2023-11-21T10:14:50;101924.56;;;2.29;100.00
20256;BME280;10286;59.364;18.016;2023-11-21T10:17:18;101921.16;;;2.27;100.00
20256;BME280;10286;59.364;18.016;2023-11-21T10:19:47;101927.97;;;2.31;100.00
20256;BME280;10286;59.364;18.016;2023-11-21T10:22:14;101932.53;;;2.23;100.00
20256;BME280;10286;59.364;18.016;2023-11-21T10:24:42;101934.28;;;1.95;100.00
20256;BME280;10286;59.364;18.016;2023-11-21T10:27:10;101925.34;;;2.03;100.00
20256;BME280;10286;59.364;18.016;2023-11-21T10:29:39;101915.16;;;1.96;100.00
20256;BME280;10286;59.364;18.016;2023-11-21T10:32:09;101924.78;;;1.94;100.00
20256;BME280;10286;59.364;18.016;2023-11-21T10:34:36;101923.66;;;2.02;100.00
20256;BME280;10286;59.364;18.016;2023-11-21T10:37:12;101911.81;;;1.92;100.00
20256;BME280;10286;59.364;18.016;2023-11-21T10:39:40;101930.53;;;2.05;100.00
20256;BME280;10286;59.364;18.016;2023-11-21T10:42:10;101937.47;;;2.04;100.00
20256;BME280;10286;59.364;18.016;2023-11-21T10:44:37;101931.50;;;2.01;100.00
20256;BME280;10286;59.364;18.016;2023-11-21T10:47:04;101937.28;;;2.10;100.00
20256;BME280;10286;59.364;18.016;2023-11-21T10:49:33;101940.31;;;1.97;100.00
20256;BME280;10286;59.364;18.016;2023-11-21T10:52:00;101942.88;;;1.98;100.00
20256;BME280;10286;59.364;18.016;2023-11-21T10:54:28;101950.91;;;1.91;100.00
20256;BME280;10286;59.364;18.016;2023-11-21T10:56:58;101946.28;;;2.00;100.00
20256;BME280;10286;59.364;18.016;2023-11-21T10:59:30;101929.00;;;1.98;100.00
20256;BME280;10286;59.364;18.016;2023-11-21T11:01:58;101937.00;;;1.92;100.00
20256;BME280;10286;59.364;18.016;2023-11-21T11:04:27;101954.78;;;2.07;100.00
20256;BME280;10286;59.364;18.016;2023-11-21T11:06:57;101958.22;;;2.07;100.00
20256;BME280;10286;59.364;18.016;2023-11-21T11:09:31;101964.19;;;2.11;100.00
20256;BME280;10286;59.364;18.016;2023-11-21T11:11:59;101971.91;;;2.14;100.00
20256;BME280;10286;59.364;18.016;2023-11-21T11:14:27;101971.81;;;2.17;100.00
20256;BME280;10286;59.364;18.016;2023-11-21T11:16:54;101968.13;;;2.24;100.00
20256;BME280;10286;59.364;18.016;2023-11-21T11:19:26;101974.28;;;2.21;100.00
20256;BME280;10286;59.364;18.016;2023-11-21T11:22:11;101946.97;;;2.07;100.00
20256;BME280;10286;59.364;18.016;2023-11-21T11:24:53;101963.09;;;2.18;100.00
20256;BME280;10286;59.364;18.016;2023-11-21T11:27:36;101967.41;;;2.19;100.00
20256;BME280;10286;59.364;18.016;2023-11-21T11:30:16;101965.69;;;2.18;100.00
20256;BME280;10286;59.364;18.016;2023-11-21T11:32:55;101975.97;;;2.24;100.00
20256;BME280;10286;59.364;18.016;2023-11-21T11:35:30;101974.06;;;2.29;100.00
20256;BME280;10286;59.364;18.016;2023-11-21T11:38:02;101988.91;;;2.25;100.00
20256;BME280;10286;59.364;18.016;2023-11-21T11:40:39;101980.50;;;2.17;100.00
20256;BME280;10286;59.364;18.016;2023-11-21T11:43:08;101986.38;;;2.24;100.00
20256;BME280;10286;59.364;18.016;2023-11-21T11:45:36;101985.78;;;2.14;100.00
20256;BME280;10286;59.364;18.016;2023-11-21T11:48:07;101978.38;;;2.01;100.00
20256;BME280;10286;59.364;18.016;2023-11-21T11:50:34;101999.06;;;2.05;100.00
20256;BME280;10286;59.364;18.016;2023-11-21T11:53:16;101996.34;;;2.10;100.00
20256;BME280;10286;59.364;18.016;2023-11-21T11:55:44;102011.31;;;2.02;100.00
20256;BME280;10286;59.364;18.016;2023-11-21T11:58:11;102010.25;;;2.09;100.00
20256;BME280;10286;59.364;18.016;2023-11-21T12:00:39;102001.91;;;1.98;100.00
20256;BME280;10286;59.364;18.016;2023-11-21T12:03:07;102004.19;;;2.08;100.00
20256;BME280;10286;59.364;18.016;2023-11-21T12:05:36;102010.16;;;2.12;100.00
20256;BME280;10286;59.364;18.016;2023-11-21T12:08:06;102012.59;;;2.18;100.00
20256;BME280;10286;59.364;18.016;2023-11-21T12:10:37;102002.97;;;2.20;100.00
20256;BME280;10286;59.364;18.016;2023-11-21T12:13:07;101971.31;;;2.04;100.00
20256;BME280;10286;59.364;18.016;2023-11-21T12:15:36;102009.63;;;2.30;100.00
20256;BME280;10286;59.364;18.016;2023-11-21T12:18:04;102014.16;;;2.23;100.00
20256;BME280;10286;59.364;18.016;2023-11-21T12:20:32;102005.19;;;2.04;100.00
20256;BME280;10286;59.364;18.016;2023-11-21T12:23:04;102014.28;;;2.19;100.00
20256;BME280;10286;59.364;18.016;2023-11-21T12:25:31;102026.06;;;2.32;100.00
20256;BME280;10286;59.364;18.016;2023-11-21T12:28:02;102030.72;;;2.21;100.00
20256;BME280;10286;59.364;18.016;2023-11-21T12:30:33;102026.41;;;2.20;100.00
20256;BME280;10286;59.364;18.016;2023-11-21T12:33:02;102029.16;;;2.15;100.00
20256;BME280;10286;59.364;18.016;2023-11-21T12:35:31;102020.72;;;2.07;100.00
20256;BME280;10286;59.364;18.016;2023-11-21T12:38:00;102033.19;;;1.96;100.00
20256;BME280;10286;59.364;18.016;2023-11-21T12:40:28;102032.41;;;1.93;100.00
20256;BME280;10286;59.364;18.016;2023-11-21T12:42:57;102024.81;;;1.85;100.00
20256;BME280;10286;59.364;18.016;2023-11-21T12:45:28;102036.44;;;1.74;100.00
20256;BME280;10286;59.364;18.016;2023-11-21T12:47:57;102038.41;;;1.66;100.00
20256;BME280;10286;59.364;18.016;2023-11-21T12:50:30;102047.84;;;1.68;100.00
20256;BME280;10286;59.364;18.016;2023-11-21T12:53:01;102052.22;;;1.68;100.00
20256;BME280;10286;59.364;18.016;2023-11-21T12:55:30;102041.56;;;1.77;100.00
20256;BME280;10286;59.364;18.016;2023-11-21T12:57:59;102042.69;;;2.83;100.00
20256;BME280;10286;59.364;18.016;2023-11-21T13:00:37;102048.03;;;2.23;100.00
20256;BME280;10286;59.364;18.016;2023-11-21T13:03:06;102047.56;;;2.09;100.00
20256;BME280;10286;59.364;18.016;2023-11-21T13:05:34;102053.34;;;1.90;100.00